PWSweather.com
Personal Weather Stations
Station Observations
KPAGREEN17
Chestnut Hill Farm, Greensburg, PA 15601

Chestnut Hill FarmGreensburg, PA 15601

Lat: 40.32, Lon: -79.55

Elevation: 1148

Station Type: OR 968

Latest ConditionsUpdated 9:15:03 AM EDT Saturday, Mar 25, 2017
Currently Today's Max Today's Min Today's Average
Temperature 60.6°F15.9°C 60.6°F15.9°C 53.0°F11.7°C 55.0°F12.8°C
Dew Point 51.5°F10.8°C 53.0°F11.7°C 46.6°F8.1°C 50.0°F10.0°C
Winds Calm Calm Calm SSECalm SSE - Calm Calm
Wind Gusts -- 2.3 mph3.7 kmh - -
Humidity 72% 90% 69% 83%
Pressure 30.11 in1019.6 mb 30.11 in1019.6 mb 30.05 in1017.6 mb -
Hour Temp Dew Point Humidity Winds Wind Gusts Pressure Precip Precip Rate Daily Precip Total
09:15 AM 60.6°F15.9°C 51.5°F10.8°C 72% Calm Calm -- 30.11 in1019.6 mb - 0.00 in0.0 mm 0.00 in0.0 mm
09:00 AM 58.4°F14.7°C 53.0°F11.7°C 82% Calm Calm 2.3 mph3.7 kmh 30.11 in1019.6 mb - 0.00 in0.0 mm 0.00 in0.0 mm
08:45 AM 56.5°F13.6°C 52.9°F11.6°C 88% Calm Calm -- 30.11 in1019.6 mb - 0.00 in0.0 mm 0.00 in0.0 mm
08:30 AM 54.9°F12.7°C 51.1°F10.6°C 87% Calm Calm -- 30.11 in1019.6 mb - 0.00 in0.0 mm 0.00 in0.0 mm
08:15 AM 54.3°F12.4°C 50.5°F10.3°C 87% Calm Calm -- 30.11 in1019.6 mb - 0.00 in0.0 mm 0.00 in0.0 mm
08:00 AM 54.1°F12.3°C 50.4°F10.2°C 87% Calm Calm -- 30.11 in1019.6 mb - 0.00 in0.0 mm 0.00 in0.0 mm
07:45 AM 54.3°F12.4°C 50.8°F10.4°C 88% Calm Calm -- 30.11 in1019.6 mb - 0.00 in0.0 mm 0.00 in0.0 mm
07:30 AM 54.3°F12.4°C 50.5°F10.3°C 87% Calm Calm -- 30.08 in1018.6 mb - 0.00 in0.0 mm 0.00 in0.0 mm
07:15 AM 54.1°F12.3°C 50.7°F10.4°C 88% Calm Calm -- 30.08 in1018.6 mb - 0.00 in0.0 mm 0.00 in0.0 mm
07:00 AM 54.0°F12.2°C 50.5°F10.3°C 88% Calm Calm -- 30.08 in1018.6 mb - 0.00 in0.0 mm 0.00 in0.0 mm
06:45 AM 53.8°F12.1°C 49.4°F9.7°C 85% Calm Calm -- 30.08 in1018.6 mb - 0.00 in0.0 mm 0.00 in0.0 mm
06:30 AM 54.3°F12.4°C 49.9°F9.9°C 85% Calm Calm -- 30.08 in1018.6 mb - 0.00 in0.0 mm 0.00 in0.0 mm
06:15 AM 54.7°F12.6°C 50.3°F10.2°C 85% Calm Calm -- 30.08 in1018.6 mb - 0.00 in0.0 mm 0.00 in0.0 mm
06:00 AM 54.9°F12.7°C 50.8°F10.4°C 86% Calm Calm -- 30.08 in1018.6 mb - 0.00 in0.0 mm 0.00 in0.0 mm
05:45 AM 54.9°F12.7°C 50.4°F10.2°C 85% Calm Calm -- 30.08 in1018.6 mb - 0.00 in0.0 mm 0.00 in0.0 mm
05:30 AM 55.2°F12.9°C 50.8°F10.4°C 85% Calm Calm -- 30.08 in1018.6 mb - 0.00 in0.0 mm 0.00 in0.0 mm
05:15 AM 55.4°F13.0°C 51.6°F10.9°C 87% Calm Calm -- 30.08 in1018.6 mb - 0.00 in0.0 mm 0.00 in0.0 mm
05:00 AM 55.2°F12.9°C 51.7°F10.9°C 88% Calm Calm -- 30.08 in1018.6 mb - 0.00 in0.0 mm 0.00 in0.0 mm
04:45 AM 55.4°F13.0°C 52.5°F11.4°C 90% Calm Calm -- 30.08 in1018.6 mb - 0.00 in0.0 mm 0.00 in0.0 mm
04:30 AM 54.5°F12.5°C 50.7°F10.4°C 87% Calm Calm -- 30.05 in1017.6 mb - 0.00 in0.0 mm 0.00 in0.0 mm
04:15 AM 54.5°F12.5°C 50.7°F10.4°C 87% Calm Calm -- 30.08 in1018.6 mb - 0.00 in0.0 mm 0.00 in0.0 mm
04:00 AM 54.6°F12.6°C 50.8°F10.4°C 87% Calm Calm -- 30.08 in1018.6 mb - 0.00 in0.0 mm 0.00 in0.0 mm
03:45 AM 54.5°F12.5°C 50.7°F10.4°C 87% Calm Calm -- 30.08 in1018.6 mb - 0.00 in0.0 mm 0.00 in0.0 mm
03:30 AM 54.5°F12.5°C 50.7°F10.4°C 87% Calm Calm -- 30.08 in1018.6 mb - 0.00 in0.0 mm 0.00 in0.0 mm
03:15 AM 54.4°F12.4°C 50.3°F10.2°C 86% Calm Calm -- 30.08 in1018.6 mb - 0.00 in0.0 mm 0.00 in0.0 mm
03:00 AM 54.3°F12.4°C 49.9°F9.9°C 85% Calm Calm -- 30.08 in1018.6 mb - 0.00 in0.0 mm 0.00 in0.0 mm
02:45 AM 54.1°F12.3°C 49.7°F9.8°C 85% Calm Calm -- 30.08 in1018.6 mb - 0.00 in0.0 mm 0.00 in0.0 mm
02:30 AM 54.0°F12.2°C 48.9°F9.4°C 83% Calm Calm -- 30.08 in1018.6 mb - 0.00 in0.0 mm 0.00 in0.0 mm
02:15 AM 53.6°F12.0°C 48.6°F9.2°C 83% Calm Calm -- 30.08 in1018.6 mb - 0.00 in0.0 mm 0.00 in0.0 mm
02:00 AM 53.3°F11.8°C 48.3°F9.1°C 83% Calm Calm -- 30.08 in1018.6 mb - 0.00 in0.0 mm 0.00 in0.0 mm
01:45 AM 53.0°F11.7°C 47.0°F8.3°C 80% Calm Calm -- 30.05 in1017.6 mb - 0.00 in0.0 mm 0.00 in0.0 mm
01:30 AM 53.2°F11.8°C 46.6°F8.1°C 78% Calm Calm -- 30.05 in1017.6 mb - 0.00 in0.0 mm 0.00 in0.0 mm
01:15 AM 54.1°F12.3°C 46.7°F8.2°C 76% Calm Calm -- 30.08 in1018.6 mb - 0.00 in0.0 mm 0.00 in0.0 mm
01:00 AM 54.9°F12.7°C 47.4°F8.6°C 76% Calm Calm -- 30.05 in1017.6 mb - 0.00 in0.0 mm 0.00 in0.0 mm
12:45 AM 55.8°F13.2°C 46.9°F8.3°C 72% Calm Calm -- 30.05 in1017.6 mb - 0.00 in0.0 mm 0.33 in8.4 mm
12:30 AM 56.9°F13.8°C 47.6°F8.7°C 71% Calm Calm -- 30.05 in1017.6 mb - 0.00 in0.0 mm 0.33 in8.4 mm
12:15 AM 58.2°F14.6°C 48.1°F8.9°C 69% Calm Calm -- 30.05 in1017.6 mb - 0.00 in0.0 mm 0.33 in8.4 mm
12:00 AM 59.5°F15.3°C 49.7°F9.8°C 70% Calm Calm -- 30.05 in1017.6 mb - 0.00 in0.0 mm 0.33 in8.4 mm